createdAt,value
2022-10-12T00:01:01.437Z,4.73
2022-10-12T00:03:05.690Z,4.07
2022-10-12T00:05:09.217Z,3.80
2022-10-12T00:07:12.090Z,4.90
2022-10-12T00:09:14.919Z,4.30
2022-10-12T00:11:20.703Z,4.37
2022-10-12T00:13:23.893Z,4.10
2022-10-12T00:15:26.770Z,4.27
2022-10-12T00:17:29.581Z,4.77
2022-10-12T00:19:33.853Z,4.70
2022-10-12T00:21:36.717Z,4.87
2022-10-12T00:23:40.410Z,4.80
2022-10-12T00:25:43.497Z,4.40
2022-10-12T00:27:46.835Z,5.33
2022-10-12T00:29:49.739Z,5.70
2022-10-12T00:31:52.642Z,5.60
2022-10-12T00:33:55.497Z,6.33
2022-10-12T00:35:59.694Z,5.23
2022-10-12T00:38:02.493Z,5.93
2022-10-12T00:40:06.143Z,5.70
2022-10-12T00:42:11.243Z,5.67
2022-10-12T00:44:40.544Z,5.90
2022-10-12T00:46:46.970Z,6.03
2022-10-12T00:48:56.337Z,6.03
2022-10-12T00:51:02.461Z,5.37
2022-10-12T00:53:10.704Z,5.70
2022-10-12T00:55:18.590Z,4.80
2022-10-12T00:57:22.657Z,4.67
2022-10-12T00:59:30.090Z,4.63
2022-10-12T01:01:35.609Z,4.77
2022-10-12T01:03:38.916Z,4.63
2022-10-12T01:05:42.008Z,5.47
2022-10-12T01:07:46.215Z,4.53
2022-10-12T01:09:49.903Z,4.50
2022-10-12T01:11:52.777Z,4.33
2022-10-12T01:13:55.586Z,4.33
2022-10-12T01:16:06.414Z,4.13
2022-10-12T01:18:16.448Z,4.20
2022-10-12T01:20:52.147Z,5.10
2022-10-12T01:23:13.625Z,4.40
2022-10-12T01:25:31.539Z,5.00
2022-10-12T01:28:00.330Z,4.00
2022-10-12T01:30:22.883Z,4.77
2022-10-12T01:32:31.616Z,4.07
2022-10-12T01:34:42.185Z,4.50
2022-10-12T01:36:50.087Z,4.50
2022-10-12T01:38:58.430Z,3.97
2022-10-12T01:41:07.812Z,4.13
2022-10-12T01:43:10.655Z,4.50
2022-10-12T01:45:17.116Z,4.53
2022-10-12T01:47:21.763Z,3.97
2022-10-12T01:49:26.900Z,4.00
2022-10-12T01:51:36.300Z,3.97
2022-10-12T01:53:45.786Z,4.30
2022-10-12T01:55:53.879Z,4.17
2022-10-12T01:58:20.082Z,3.87
2022-10-12T02:00:23.245Z,4.03
2022-10-12T02:02:33.947Z,3.97
2022-10-12T02:04:42.458Z,3.83
2022-10-12T02:06:50.119Z,3.60
2022-10-12T02:08:59.034Z,4.20
2022-10-12T02:11:07.066Z,3.67
2022-10-12T02:13:13.524Z,3.27
2022-10-12T02:15:18.991Z,3.90
2022-10-12T02:17:23.941Z,3.80
2022-10-12T02:19:31.471Z,3.80
2022-10-12T02:21:35.904Z,3.27
2022-10-12T02:23:39.794Z,3.63
2022-10-12T02:25:43.039Z,3.77
2022-10-12T02:27:50.936Z,4.00
2022-10-12T02:29:54.084Z,3.77
2022-10-12T02:32:03.307Z,3.73
2022-10-12T02:34:12.526Z,3.53
2022-10-12T02:36:24.042Z,3.50
2022-10-12T02:38:31.292Z,4.33
2022-10-12T02:40:37.391Z,4.40
2022-10-12T02:43:08.805Z,3.70
2022-10-12T02:45:10.879Z,4.13
2022-10-12T02:47:15.616Z,4.40
2022-10-12T02:49:19.286Z,4.10
2022-10-12T02:51:24.754Z,3.70
2022-10-12T02:53:30.939Z,4.30
2022-10-12T02:55:38.306Z,4.20
2022-10-12T02:57:41.213Z,4.07
2022-10-12T02:59:44.049Z,4.63
2022-10-12T03:01:47.234Z,4.33
2022-10-12T03:03:50.257Z,4.30
2022-10-12T03:05:53.113Z,4.30
2022-10-12T03:07:57.315Z,3.73
2022-10-12T03:10:00.160Z,4.50
2022-10-12T03:12:03.013Z,4.60
2022-10-12T03:14:05.807Z,4.07
2022-10-12T03:16:10.883Z,4.40
2022-10-12T03:18:13.746Z,4.00
2022-10-12T03:20:16.651Z,4.10
2022-10-12T03:22:19.494Z,4.27
2022-10-12T03:24:23.656Z,4.47
2022-10-12T03:26:26.501Z,4.47
2022-10-12T03:28:29.506Z,3.87
2022-10-12T03:30:32.363Z,4.37
2022-10-12T03:32:35.274Z,3.47
2022-10-12T03:34:38.457Z,3.60
2022-10-12T03:36:41.326Z,4.13
2022-10-12T03:38:44.150Z,3.50
2022-10-12T03:40:48.719Z,4.10
2022-10-12T03:42:51.585Z,3.73
2022-10-12T03:44:54.390Z,4.10
2022-10-12T03:46:57.286Z,4.13
2022-10-12T03:49:00.103Z,3.80
2022-10-12T03:51:02.989Z,3.30
2022-10-12T03:53:06.911Z,2.90
2022-10-12T03:55:10.644Z,2.97
2022-10-12T03:57:14.817Z,3.93
2022-10-12T03:59:17.725Z,3.13
2022-10-12T04:01:20.659Z,3.00
2022-10-12T04:03:23.832Z,2.60
2022-10-12T04:05:26.745Z,3.60
2022-10-12T04:07:29.567Z,3.97
2022-10-12T04:09:32.357Z,3.37
2022-10-12T04:11:35.295Z,3.27
2022-10-12T04:13:39.609Z,3.40
2022-10-12T04:15:42.426Z,3.10
2022-10-12T04:17:45.661Z,3.80
2022-10-12T04:19:48.548Z,3.30
2022-10-12T04:21:51.405Z,3.30
2022-10-12T04:23:54.360Z,3.30
2022-10-12T04:25:57.210Z,3.00
2022-10-12T04:28:00.199Z,2.97
2022-10-12T04:30:04.806Z,3.80
2022-10-12T04:32:12.337Z,9.40
2022-10-12T04:34:15.769Z,6.30
2022-10-12T04:36:18.651Z,8.90
2022-10-12T04:38:21.481Z,6.87
2022-10-12T04:40:24.474Z,6.50
2022-10-12T04:42:27.487Z,4.00
2022-10-12T04:44:32.427Z,3.90
2022-10-12T04:46:36.770Z,4.00
2022-10-12T04:48:40.082Z,4.10
2022-10-12T04:50:43.986Z,3.40
2022-10-12T04:52:46.756Z,3.47
2022-10-12T04:54:49.586Z,3.47
2022-10-12T04:56:52.415Z,3.10
2022-10-12T04:58:55.298Z,3.60
2022-10-12T05:00:58.679Z,3.23
2022-10-12T05:03:02.925Z,3.80
2022-10-12T05:05:09.199Z,3.23
2022-10-12T05:07:12.074Z,3.97
2022-10-12T05:09:17.053Z,4.23
2022-10-12T05:11:20.363Z,4.17
2022-10-12T05:13:23.165Z,4.70
2022-10-12T05:15:26.336Z,3.93
2022-10-12T05:17:29.213Z,3.33
2022-10-12T05:19:33.447Z,4.13
2022-10-12T05:21:36.315Z,4.10
2022-10-12T05:23:39.142Z,3.47
2022-10-12T05:25:42.406Z,4.00
2022-10-12T05:27:45.369Z,8.30
2022-10-12T05:29:48.232Z,11.87
2022-10-12T05:31:51.020Z,5.43
2022-10-12T05:33:53.886Z,4.60
2022-10-12T05:35:58.059Z,4.53
2022-10-12T05:38:01.016Z,6.60
2022-10-12T05:40:04.541Z,5.53
2022-10-12T05:42:07.467Z,5.23
2022-10-12T05:44:10.308Z,5.07
2022-10-12T05:46:14.474Z,4.00
2022-10-12T05:48:17.685Z,4.30
2022-10-12T05:50:21.289Z,6.10
2022-10-12T05:52:25.424Z,4.70
2022-10-12T05:54:28.274Z,14.10
2022-10-12T05:56:31.241Z,7.77
2022-10-12T05:58:34.217Z,11.53
2022-10-12T06:00:37.048Z,7.40
2022-10-12T06:02:40.132Z,8.33
2022-10-12T06:04:43.549Z,8.03
2022-10-12T06:06:46.378Z,7.70
2022-10-12T06:08:50.571Z,7.10
2022-10-12T06:10:53.966Z,6.83
2022-10-12T06:12:56.846Z,7.43
2022-10-12T06:14:59.672Z,6.67
2022-10-12T06:17:02.582Z,6.30
2022-10-12T06:19:05.455Z,6.57
2022-10-12T06:21:32.024Z,6.37
2022-10-12T06:23:31.422Z,7.37
2022-10-12T06:25:35.797Z,7.67
2022-10-12T06:27:38.605Z,7.30
2022-10-12T06:29:41.501Z,8.23
2022-10-12T06:31:48.995Z,8.20
2022-10-12T06:33:54.245Z,8.07
2022-10-12T06:35:57.619Z,6.80
2022-10-12T06:38:00.569Z,6.77
2022-10-12T06:40:03.543Z,7.90
2022-10-12T06:42:08.931Z,7.57
2022-10-12T06:44:11.766Z,7.33
2022-10-12T06:46:14.562Z,6.17
2022-10-12T06:48:18.715Z,6.47
2022-10-12T06:50:22.090Z,5.77
2022-10-12T06:52:24.902Z,4.87
2022-10-12T06:54:27.786Z,4.83
2022-10-12T06:56:31.319Z,5.57
2022-10-12T06:58:35.687Z,5.20
2022-10-12T07:00:38.793Z,5.53
2022-10-12T07:02:41.941Z,4.90
2022-10-12T07:04:44.792Z,5.17
2022-10-12T07:06:47.621Z,5.63
2022-10-12T07:08:50.442Z,5.57
2022-10-12T07:11:01.611Z,6.10
2022-10-12T07:13:04.471Z,5.73
2022-10-12T07:15:10.171Z,5.80
2022-10-12T07:17:13.025Z,5.90
2022-10-12T07:19:15.874Z,5.03
2022-10-12T07:21:18.727Z,6.07
2022-10-12T07:23:21.548Z,5.97
2022-10-12T07:25:24.333Z,6.20
2022-10-12T07:27:27.310Z,6.30
2022-10-12T07:29:32.269Z,6.20
2022-10-12T07:31:36.604Z,5.40
2022-10-12T07:33:39.680Z,5.60
2022-10-12T07:36:03.302Z,5.50
2022-10-12T07:38:05.670Z,5.37
2022-10-12T07:40:09.842Z,5.53
2022-10-12T07:42:18.253Z,5.40
2022-10-12T07:44:24.420Z,5.40
2022-10-12T07:46:27.364Z,5.20
2022-10-12T07:48:31.687Z,5.03
2022-10-12T07:50:36.519Z,5.60
2022-10-12T07:52:39.598Z,5.83
2022-10-12T07:54:42.510Z,6.33
2022-10-12T07:56:46.622Z,5.43
2022-10-12T07:58:50.891Z,6.20
2022-10-12T08:00:53.661Z,6.00
2022-10-12T08:02:56.525Z,6.03
2022-10-12T08:05:00.791Z,6.23
2022-10-12T08:07:03.723Z,7.23
2022-10-12T08:09:06.650Z,6.13
2022-10-12T08:11:10.295Z,7.33
2022-10-12T08:13:13.247Z,6.60
2022-10-12T08:15:16.343Z,6.40
2022-10-12T08:17:19.215Z,7.10
2022-10-12T08:19:22.092Z,6.20
2022-10-12T08:21:26.299Z,6.07
2022-10-12T08:23:29.316Z,6.27
2022-10-12T08:25:32.124Z,5.40
2022-10-12T08:27:35.867Z,5.67
2022-10-12T08:29:39.540Z,4.97
2022-10-12T08:31:42.352Z,4.00
2022-10-12T08:33:45.324Z,4.10
2022-10-12T08:35:49.167Z,3.73
2022-10-12T08:37:53.331Z,4.20
2022-10-12T08:40:00.881Z,3.60
2022-10-12T08:42:17.454Z,3.73
2022-10-12T08:44:36.846Z,3.27
2022-10-12T08:46:40.112Z,3.73
2022-10-12T08:48:48.133Z,3.13
2022-10-12T08:50:54.548Z,3.80
2022-10-12T08:53:04.925Z,3.77
2022-10-12T08:55:20.299Z,3.13
2022-10-12T08:57:23.165Z,2.80
2022-10-12T08:59:27.142Z,3.20
2022-10-12T09:01:37.157Z,3.03
2022-10-12T09:03:49.783Z,2.90
2022-10-12T09:06:03.923Z,3.03
2022-10-12T09:08:15.837Z,3.07
2022-10-12T09:10:34.209Z,2.40
2022-10-12T09:12:46.997Z,2.60
2022-10-12T09:14:54.739Z,2.93
2022-10-12T09:16:58.282Z,2.70
2022-10-12T09:19:05.991Z,2.77
2022-10-12T09:21:12.752Z,2.57
2022-10-12T09:23:25.290Z,2.70
2022-10-12T09:25:29.313Z,2.73
2022-10-12T09:27:32.936Z,3.10
2022-10-12T09:29:35.741Z,2.87
2022-10-12T09:31:47.636Z,3.07
2022-10-12T09:33:55.085Z,2.70
2022-10-12T09:35:58.857Z,2.50
2022-10-12T09:38:02.653Z,2.60
2022-10-12T09:40:08.408Z,3.07
2022-10-12T09:42:12.438Z,2.80
2022-10-12T09:44:21.251Z,2.83
2022-10-12T09:46:30.003Z,3.03
2022-10-12T09:48:32.814Z,2.67
2022-10-12T09:50:41.457Z,2.97
2022-10-12T09:52:46.073Z,3.20
2022-10-12T09:54:51.988Z,3.10
2022-10-12T09:56:56.325Z,2.70
2022-10-12T09:59:02.943Z,2.97
2022-10-12T10:01:24.239Z,3.53
2022-10-12T10:03:30.587Z,2.80
2022-10-12T10:05:35.834Z,3.07
2022-10-12T10:07:38.857Z,2.90
2022-10-12T10:09:41.738Z,2.80
2022-10-12T10:11:44.622Z,3.10
2022-10-12T10:13:54.776Z,3.07
2022-10-12T10:16:05.814Z,3.37
2022-10-12T10:18:21.246Z,3.87
2022-10-12T10:20:34.444Z,2.73
2022-10-12T10:22:37.365Z,3.00
2022-10-12T10:24:41.070Z,2.97
2022-10-12T10:26:55.654Z,2.63
2022-10-12T10:29:17.695Z,3.13
2022-10-12T10:31:24.935Z,3.00
2022-10-12T10:33:27.989Z,2.87
2022-10-12T10:35:30.893Z,3.27
2022-10-12T10:37:34.710Z,3.30
2022-10-12T10:39:46.386Z,3.10
2022-10-12T10:41:50.119Z,2.97
2022-10-12T10:43:52.994Z,3.40
2022-10-12T10:46:00.648Z,3.40
2022-10-12T10:48:09.630Z,3.30
2022-10-12T10:50:26.912Z,3.27
2022-10-12T10:52:32.195Z,3.70
2022-10-12T10:54:38.395Z,3.33
2022-10-12T10:56:41.260Z,3.30
2022-10-12T10:58:46.480Z,4.07
2022-10-12T11:00:50.426Z,3.63
2022-10-12T11:02:57.469Z,3.37
2022-10-12T11:05:07.079Z,3.17
2022-10-12T11:07:19.230Z,3.37
2022-10-12T11:09:29.859Z,3.93
2022-10-12T11:11:35.897Z,3.60
2022-10-12T11:13:44.666Z,3.63
2022-10-12T11:15:51.824Z,3.63
2022-10-12T11:18:02.075Z,3.50
2022-10-12T11:20:30.216Z,3.43
2022-10-12T11:22:40.316Z,3.43
2022-10-12T11:24:47.083Z,2.57
2022-10-12T11:26:54.679Z,2.83
2022-10-12T11:29:00.479Z,3.13
2022-10-12T11:31:03.860Z,3.20
2022-10-12T11:33:13.293Z,3.47
2022-10-12T11:35:18.474Z,2.93
2022-10-12T11:37:24.705Z,3.07
2022-10-12T11:39:34.059Z,3.53
2022-10-12T11:42:03.190Z,3.60
2022-10-12T11:44:16.618Z,3.40
2022-10-12T11:46:28.418Z,3.00
2022-10-12T11:48:37.817Z,3.10
2022-10-12T11:50:43.305Z,3.13
2022-10-12T11:52:49.167Z,3.20
2022-10-12T11:54:56.793Z,3.40
2022-10-12T11:57:04.777Z,3.50
2022-10-12T11:59:17.833Z,3.53
2022-10-12T12:01:47.994Z,3.47
2022-10-12T12:04:36.504Z,3.40
2022-10-12T12:06:51.347Z,3.27
2022-10-12T12:09:07.025Z,3.30
2022-10-12T12:11:21.486Z,3.27
2022-10-12T12:13:27.221Z,3.13
2022-10-12T12:15:30.358Z,3.00
2022-10-12T12:17:34.500Z,3.17
2022-10-12T12:19:40.882Z,3.40
2022-10-12T12:22:28.675Z,2.83
2022-10-12T12:24:31.836Z,2.90
2022-10-12T12:26:35.226Z,3.03
2022-10-12T12:28:39.941Z,2.93
2022-10-12T12:30:42.842Z,2.70
2022-10-12T12:32:48.331Z,3.50
2022-10-12T12:35:00.283Z,3.10
2022-10-12T12:37:13.486Z,3.10
2022-10-12T12:39:24.299Z,2.70
2022-10-12T12:41:47.571Z,2.87
2022-10-12T12:43:58.041Z,2.70
2022-10-12T12:46:01.970Z,2.80
2022-10-12T12:50:32.725Z,3.27
2022-10-12T12:52:40.736Z,3.00
2022-10-12T12:54:54.489Z,3.20
2022-10-12T12:57:35.791Z,2.90
2022-10-12T13:00:11.690Z,3.10
2022-10-12T13:02:37.634Z,3.30
2022-10-12T13:05:11.443Z,3.73
2022-10-12T13:07:47.710Z,2.90
2022-10-12T13:10:04.196Z,3.00
2022-10-12T13:12:25.876Z,2.70
2022-10-12T13:14:42.735Z,3.30
2022-10-12T13:19:22.632Z,3.23
2022-10-12T13:21:27.640Z,3.13
2022-10-12T13:23:32.098Z,3.80
2022-10-12T13:25:37.581Z,3.60
2022-10-12T13:27:46.456Z,3.23
2022-10-12T13:29:56.309Z,3.60
2022-10-12T13:32:03.561Z,3.37
2022-10-12T13:34:13.730Z,3.23
2022-10-12T13:36:22.172Z,3.50
2022-10-12T13:38:26.921Z,3.90
2022-10-12T13:40:33.169Z,3.30
2022-10-12T13:42:36.553Z,3.70
2022-10-12T13:44:39.410Z,3.50
2022-10-12T13:46:45.166Z,3.53
2022-10-12T13:49:05.476Z,3.17
2022-10-12T13:51:23.851Z,3.60
2022-10-12T13:53:28.099Z,3.30
2022-10-12T13:55:32.282Z,3.47
2022-10-12T13:57:41.170Z,3.20
2022-10-12T13:59:44.366Z,3.10
2022-10-12T14:01:52.951Z,3.60
2022-10-12T14:04:04.358Z,3.77
2022-10-12T14:06:07.757Z,3.47
2022-10-12T14:08:15.597Z,3.27
2022-10-12T14:10:24.154Z,3.73
2022-10-12T14:12:30.254Z,3.67
2022-10-12T14:14:35.997Z,3.43
2022-10-12T14:16:38.919Z,3.70
2022-10-12T14:18:43.443Z,3.30
2022-10-12T14:20:46.332Z,3.63
2022-10-12T14:22:51.122Z,3.47
2022-10-12T14:25:08.858Z,3.57
2022-10-12T14:27:23.729Z,3.67
2022-10-12T14:29:32.970Z,3.30
2022-10-12T14:31:49.679Z,3.17
2022-10-12T14:33:52.717Z,3.60
2022-10-12T14:36:14.048Z,3.00
2022-10-12T14:38:39.530Z,3.40
2022-10-12T14:40:42.524Z,2.10
2022-10-12T14:42:55.455Z,2.13
2022-10-12T14:44:59.978Z,2.20
2022-10-12T14:47:07.451Z,2.17
2022-10-12T14:49:17.517Z,2.30
2022-10-12T14:51:20.335Z,2.40
2022-10-12T14:53:29.047Z,2.03
2022-10-12T14:55:33.867Z,2.37
2022-10-12T14:57:36.720Z,2.30
2022-10-12T14:59:39.588Z,2.13
2022-10-12T15:01:47.570Z,2.20
2022-10-12T15:03:50.677Z,2.40
2022-10-12T15:05:53.489Z,2.60
2022-10-12T15:07:56.484Z,2.30
2022-10-12T15:09:59.442Z,2.10
2022-10-12T15:12:02.295Z,2.83
2022-10-12T15:14:05.191Z,2.40
2022-10-12T15:16:19.513Z,2.43
2022-10-12T15:18:23.683Z,2.40
2022-10-12T15:20:26.858Z,2.80
2022-10-12T15:22:29.928Z,2.97
2022-10-12T15:24:32.731Z,7.30
2022-10-12T15:26:40.051Z,5.10
2022-10-12T15:28:45.877Z,2.97
2022-10-12T15:31:12.223Z,3.83
2022-10-12T15:33:13.110Z,2.67
2022-10-12T15:35:20.569Z,3.10
2022-10-12T15:37:26.311Z,3.60
2022-10-12T15:39:29.819Z,3.90
2022-10-12T15:41:32.667Z,5.23
2022-10-12T15:43:38.124Z,5.13
2022-10-12T15:45:45.268Z,5.33
2022-10-12T15:47:48.799Z,3.23
2022-10-12T15:49:51.657Z,3.50
2022-10-12T15:51:56.141Z,3.40
2022-10-12T15:53:58.975Z,3.60
2022-10-12T15:56:01.825Z,9.07
2022-10-12T15:58:04.887Z,4.30
2022-10-12T16:00:09.009Z,4.80
2022-10-12T16:02:13.202Z,7.10
2022-10-12T16:04:16.580Z,5.00
2022-10-12T16:06:19.532Z,3.97
2022-10-12T16:08:23.762Z,4.10
2022-10-12T16:10:29.610Z,4.97
2022-10-12T16:12:32.451Z,6.17
2022-10-12T16:14:35.236Z,6.50
2022-10-12T16:16:38.847Z,7.00
2022-10-12T16:18:41.754Z,6.07
2022-10-12T16:20:47.618Z,6.00
2022-10-12T16:22:56.062Z,5.63
2022-10-12T16:25:00.282Z,6.37
2022-10-12T16:27:03.162Z,6.10
2022-10-12T16:29:06.040Z,6.07
2022-10-12T16:31:15.291Z,9.23
2022-10-12T16:33:19.383Z,8.03
2022-10-12T16:35:22.242Z,7.40
2022-10-12T16:37:25.274Z,10.97
2022-10-12T16:39:28.261Z,8.17
2022-10-12T16:41:34.095Z,7.87
2022-10-12T16:43:37.202Z,7.23
2022-10-12T16:45:40.048Z,6.67
2022-10-12T16:47:43.183Z,8.43
2022-10-12T16:49:46.355Z,7.50
2022-10-12T16:51:49.334Z,7.23
2022-10-12T16:53:52.130Z,6.50
2022-10-12T16:55:55.017Z,5.60
2022-10-12T16:57:59.254Z,5.37
2022-10-12T17:00:02.779Z,5.47
2022-10-12T17:02:05.937Z,6.00
2022-10-12T17:04:08.912Z,6.30
2022-10-12T17:06:12.156Z,6.80
2022-10-12T17:08:15.793Z,6.73
2022-10-12T17:10:18.839Z,6.10
2022-10-12T17:12:21.699Z,6.70
2022-10-12T17:14:25.922Z,11.23
2022-10-12T17:17:00.821Z,6.43
2022-10-12T17:19:04.517Z,7.10
2022-10-12T17:21:07.459Z,6.23
2022-10-12T17:23:10.325Z,5.63
2022-10-12T17:25:13.165Z,6.13
2022-10-12T17:27:16.803Z,6.90
2022-10-12T17:29:28.639Z,7.33
2022-10-12T17:31:31.635Z,7.53
2022-10-12T17:33:34.855Z,7.97
2022-10-12T17:35:40.796Z,8.90
2022-10-12T17:37:43.621Z,12.10
2022-10-12T17:39:48.300Z,13.73
2022-10-12T17:41:52.856Z,11.20
2022-10-12T17:43:55.828Z,13.03
2022-10-12T17:46:00.180Z,11.10
2022-10-12T17:48:03.272Z,11.27
2022-10-12T17:50:07.036Z,17.73
2022-10-12T17:52:09.928Z,25.70
2022-10-12T17:54:12.836Z,24.63
2022-10-12T17:56:16.563Z,24.80
2022-10-12T17:58:19.569Z,22.37
2022-10-12T18:00:22.795Z,22.07
2022-10-12T18:02:27.071Z,32.07
2022-10-12T18:04:30.287Z,29.87
2022-10-12T18:06:34.924Z,24.97
2022-10-12T18:08:38.178Z,22.43
2022-10-12T18:10:42.439Z,19.33
2022-10-12T18:12:45.563Z,20.23
2022-10-12T18:14:48.709Z,24.97
2022-10-12T18:16:54.331Z,19.60
2022-10-12T18:18:59.683Z,17.40
2022-10-12T18:21:07.123Z,13.47
2022-10-12T18:23:10.096Z,10.53
2022-10-12T18:25:13.188Z,10.13
2022-10-12T18:27:16.140Z,9.63
2022-10-12T18:29:19.431Z,9.23
2022-10-12T18:31:24.503Z,8.73
2022-10-12T18:33:27.681Z,8.70
2022-10-12T18:35:34.852Z,8.30
2022-10-12T18:37:37.785Z,7.83
2022-10-12T18:39:42.466Z,7.77
2022-10-12T18:41:47.291Z,7.10
2022-10-12T18:43:55.307Z,7.13
2022-10-12T18:45:58.719Z,7.50
2022-10-12T18:48:01.880Z,8.07
2022-10-12T18:50:05.456Z,7.77
2022-10-12T18:52:09.753Z,8.20
2022-10-12T18:54:14.010Z,7.27
2022-10-12T18:56:17.551Z,8.20
2022-10-12T18:58:20.667Z,7.33
2022-10-12T19:00:23.754Z,7.50
2022-10-12T19:02:26.717Z,8.53
2022-10-12T19:04:29.552Z,8.77
2022-10-12T19:06:34.721Z,8.57
2022-10-12T19:08:38.968Z,8.37
2022-10-12T19:10:42.447Z,8.77
2022-10-12T19:12:45.908Z,11.40
2022-10-12T19:14:49.353Z,9.87
2022-10-12T19:16:52.473Z,15.97
2022-10-12T19:18:57.036Z,11.13
2022-10-12T19:21:03.966Z,10.73
2022-10-12T19:23:06.849Z,13.57
2022-10-12T19:25:11.330Z,12.47
2022-10-12T19:27:14.178Z,29.17
2022-10-12T19:29:17.103Z,14.50
2022-10-12T19:31:21.893Z,10.60
2022-10-12T19:33:24.657Z,10.47
2022-10-12T19:35:28.665Z,9.83
2022-10-12T19:37:31.511Z,9.33
2022-10-12T19:39:34.757Z,8.77
2022-10-12T19:41:39.508Z,8.37
2022-10-12T19:43:44.035Z,9.17
2022-10-12T19:45:50.478Z,9.43
2022-10-12T19:47:53.286Z,8.97
2022-10-12T19:49:56.176Z,9.77
2022-10-12T19:51:58.989Z,10.87
2022-10-12T19:54:04.793Z,9.47
2022-10-12T19:56:10.260Z,9.40
2022-10-12T19:58:14.439Z,10.03
2022-10-12T20:00:17.866Z,9.53
2022-10-12T20:02:21.135Z,10.03
2022-10-12T20:04:24.154Z,10.00
2022-10-12T20:06:30.558Z,10.43
2022-10-12T20:08:34.268Z,10.00
2022-10-12T20:10:38.070Z,10.77
2022-10-12T20:12:40.889Z,11.17
2022-10-12T20:14:45.161Z,12.10
2022-10-12T20:16:48.071Z,13.67
2022-10-12T20:18:51.354Z,12.30
2022-10-12T20:20:54.474Z,12.57
2022-10-12T20:22:59.046Z,11.53
2022-10-12T20:25:06.997Z,12.13
2022-10-12T20:27:12.424Z,11.23
2022-10-12T20:29:15.408Z,10.47
2022-10-12T20:31:23.249Z,11.23
2022-10-12T20:33:26.092Z,10.30
2022-10-12T20:35:29.048Z,11.17
2022-10-12T20:37:33.146Z,10.57
2022-10-12T20:39:36.147Z,16.67
2022-10-12T20:41:40.319Z,19.50
2022-10-12T20:43:43.213Z,16.50
2022-10-12T20:45:45.981Z,20.80
2022-10-12T20:47:50.301Z,17.10
2022-10-12T20:49:53.237Z,18.87
2022-10-12T20:51:56.030Z,23.60
2022-10-12T20:54:00.799Z,16.43
2022-10-12T20:56:05.512Z,14.37
2022-10-12T20:58:08.340Z,10.30
2022-10-12T21:00:11.901Z,8.80
2022-10-12T21:02:15.145Z,9.37
2022-10-12T21:04:19.574Z,7.90
2022-10-12T21:06:23.735Z,7.77
2022-10-12T21:08:26.784Z,7.07
2022-10-12T21:10:29.817Z,9.23
2022-10-12T21:12:32.605Z,8.93
2022-10-12T21:14:35.486Z,7.80
2022-10-12T21:16:38.292Z,7.40
2022-10-12T21:18:42.128Z,8.60
2022-10-12T21:20:54.551Z,7.53
2022-10-12T21:22:57.391Z,7.40
2022-10-12T21:25:00.174Z,7.67
2022-10-12T21:27:04.637Z,8.67
2022-10-12T21:29:07.521Z,7.67
2022-10-12T21:31:11.306Z,8.00
2022-10-12T21:33:15.238Z,9.17
2022-10-12T21:35:18.136Z,8.00
2022-10-12T21:37:22.339Z,8.20
2022-10-12T21:39:25.811Z,7.17
2022-10-12T21:41:30.105Z,7.90
2022-10-12T21:43:33.001Z,8.30
2022-10-12T21:45:35.787Z,7.83
2022-10-12T21:47:38.626Z,8.90
2022-10-12T21:49:41.534Z,8.70
2022-10-12T21:51:44.495Z,8.80
2022-10-12T21:53:49.096Z,7.93
2022-10-12T21:55:51.932Z,8.40
2022-10-12T21:57:54.777Z,8.60
2022-10-12T21:59:57.677Z,8.30
2022-10-12T22:02:00.554Z,8.13
2022-10-12T22:04:06.200Z,8.50
2022-10-12T22:06:13.330Z,8.90
2022-10-12T22:08:16.110Z,8.57
2022-10-12T22:10:20.284Z,9.33
2022-10-12T22:12:23.073Z,8.20
2022-10-12T22:14:25.850Z,8.93
2022-10-12T22:16:30.111Z,8.73
2022-10-12T22:18:33.676Z,8.30
2022-10-12T22:20:37.325Z,9.20
2022-10-12T22:22:40.211Z,8.33
2022-10-12T22:24:43.086Z,9.03
2022-10-12T22:26:49.465Z,8.57
2022-10-12T22:28:56.510Z,8.60
2022-10-12T22:30:59.399Z,8.70
2022-10-12T22:33:02.211Z,9.50
2022-10-12T22:35:05.522Z,8.70
2022-10-12T22:37:08.346Z,8.60
2022-10-12T22:39:11.198Z,8.17
2022-10-12T22:41:16.379Z,8.13
2022-10-12T22:43:20.514Z,7.67
2022-10-12T22:45:28.011Z,8.20
2022-10-12T22:47:31.137Z,8.00
2022-10-12T22:49:33.998Z,9.57
2022-10-12T22:51:39.269Z,8.53
2022-10-12T22:53:42.148Z,8.33
2022-10-12T22:55:45.476Z,8.83
2022-10-12T22:57:48.402Z,8.93
2022-10-12T22:59:52.548Z,8.00
2022-10-12T23:01:55.350Z,8.13
2022-10-12T23:03:58.297Z,9.50
2022-10-12T23:06:01.670Z,8.33
2022-10-12T23:08:04.694Z,8.83
2022-10-12T23:10:08.629Z,9.07
2022-10-12T23:12:11.520Z,8.77
2022-10-12T23:14:14.280Z,8.87
2022-10-12T23:16:20.343Z,8.37
2022-10-12T23:18:23.113Z,8.77
2022-10-12T23:20:26.038Z,8.93
2022-10-12T23:22:29.131Z,8.53
2022-10-12T23:24:31.919Z,8.90
2022-10-12T23:26:35.300Z,8.70
2022-10-12T23:28:40.145Z,8.17
2022-10-12T23:30:42.992Z,7.87
2022-10-12T23:32:47.161Z,9.47
2022-10-12T23:34:49.992Z,8.73
2022-10-12T23:36:52.821Z,8.67
2022-10-12T23:38:55.753Z,7.97
2022-10-12T23:40:59.037Z,8.77
2022-10-12T23:43:02.069Z,9.43
2022-10-12T23:45:05.772Z,8.87
2022-10-12T23:47:08.577Z,10.93
2022-10-12T23:49:12.879Z,9.07
2022-10-12T23:51:15.664Z,8.77
2022-10-12T23:53:19.015Z,8.57
2022-10-12T23:55:21.858Z,8.10
2022-10-12T23:57:45.707Z,9.10
2022-10-12T23:59:47.520Z,9.07
